FAB weather

Farnborough Airport
Farnborough, England, United Kingdom

Public forecast

Using degrees Celsius for public forecast. Weather courtesy of forecast.io.

METAR (pilot weather report)

Retrieved 2019/03/23 09:50 UTC (16 minutes ago):

EGLF 230950Z AUTO 03008KT 9999 OVC027/// 10/06 Q1032

TAF (pilot weather forecast)

Forecast is more than 12 hours old.

Retrieved 2016/04/18 18:00 UTC (3 years ago):

TAF EGLF 181658Z 1818/1821 26008KT 9999 BKN040